Time;durP1;ratioP1;P1;durP2;ratioP2;P2;SDS_P1;SDS_P2;PMS_P1;PMS_P2;Temp;Humidity;BMP_temperature;BMP_pressure;BME280_temperature;BME280_humidity;BME280_pressure;Samples;Min_cycle;Max_cycle;Signal;HPM_P1;HPM_P2
2022/09/10 00:00:25;;;;;;;2.80;2.60;;;;;;;;;;5042735;28;24429;-47
2022/09/10 00:02:50;;;;;;;3.00;2.40;;;;;;;;;;5046391;28;24817;-47
2022/09/10 00:05:16;;;;;;;2.93;2.63;;;;;;;;;;5035602;28;24493;-48
2022/09/10 00:07:42;;;;;;;3.10;2.80;;;;;;;;;;5049846;28;24956;-47
2022/09/10 00:10:07;;;;;;;3.08;2.70;;;;;;;;;;5048450;28;24430;-47
2022/09/10 00:12:33;;;;;;;2.77;2.40;;;;;;;;;;5040964;28;24782;-47
2022/09/10 00:14:58;;;;;;;2.60;2.50;;;;;;;;;;5049086;28;24435;-47
2022/09/10 00:17:24;;;;;;;2.80;2.60;;;;;;;;;;5048496;28;24398;-46
2022/09/10 00:19:49;;;;;;;2.97;2.67;;;;;;;;;;5043331;28;24445;-47
2022/09/10 00:22:14;;;;;;;4.13;2.90;;;;;;;;;;5048124;28;24415;-46
2022/09/10 00:24:40;;;;;;;2.33;2.13;;;;;;;;;;5038782;28;24459;-46
2022/09/10 00:27:05;;;;;;;2.65;2.45;;;;;;;;;;5049241;28;24965;-46
2022/09/10 00:29:30;;;;;;;3.22;2.10;;;;;;;;;;5042058;28;24434;-47
2022/09/10 00:31:55;;;;;;;2.60;2.20;;;;;;;;;;5041042;28;24508;-47
2022/09/10 00:34:20;;;;;;;2.60;2.40;;;;;;;;;;5048543;28;25042;-47
2022/09/10 00:36:46;;;;;;;2.20;2.00;;;;;;;;;;5048740;28;24425;-48
2022/09/10 00:39:15;;;;;;;2.43;2.23;;;;;;;;;;5041703;28;24476;-48
2022/09/10 00:41:40;;;;;;;2.70;2.50;;;;;;;;;;5042831;28;24419;-47
2022/09/10 00:44:25;;;;;;;2.80;2.50;;;;;;;;;;5048474;28;24511;-45
2022/09/10 00:46:51;;;;;;;2.40;2.20;;;;;;;;;;5049661;28;24520;-48
2022/09/10 00:49:22;;;;;;;2.30;2.10;;;;;;;;;;5044613;28;24841;-48
2022/09/10 00:51:51;;;;;;;3.50;2.33;;;;;;;;;;5040316;28;24534;-48
2022/09/10 00:54:18;;;;;;;2.60;2.40;;;;;;;;;;5047027;28;24426;-46
2022/09/10 00:56:44;;;;;;;2.83;2.20;;;;;;;;;;5044018;28;24461;-47
2022/09/10 00:59:11;;;;;;;2.30;2.20;;;;;;;;;;5044230;28;24534;-48
2022/09/10 01:01:37;;;;;;;2.50;2.30;;;;;;;;;;5047486;28;24852;-46
2022/09/10 01:04:03;;;;;;;2.22;2.03;;;;;;;;;;5038970;28;24507;-45
2022/09/10 01:06:29;;;;;;;2.60;2.40;;;;;;;;;;5035156;28;24481;-46
2022/09/10 01:08:54;;;;;;;2.80;2.60;;;;;;;;;;5040729;28;24957;-46
2022/09/10 01:11:30;;;;;;;2.80;2.50;;;;;;;;;;5036752;28;24432;-47
2022/09/10 01:13:55;;;;;;;2.35;2.10;;;;;;;;;;5045646;28;24424;-47
2022/09/10 01:16:37;;;;;;;2.60;2.40;;;;;;;;;;5030450;28;24451;-48
2022/09/10 01:19:11;;;;;;;3.67;2.30;;;;;;;;;;5033994;28;24433;-47
2022/09/10 01:21:50;;;;;;;2.80;2.60;;;;;;;;;;5041342;28;24449;-47
2022/09/10 01:24:42;;;;;;;2.67;2.47;;;;;;;;;;5043319;28;24447;-48
2022/09/10 01:27:25;;;;;;;2.40;2.20;;;;;;;;;;5037117;28;24423;-46
2022/09/10 01:29:54;;;;;;;2.50;2.30;;;;;;;;;;5047029;28;24465;-47
2022/09/10 01:32:42;;;;;;;2.55;2.35;;;;;;;;;;5042477;28;25098;-48
2022/09/10 01:35:17;;;;;;;2.63;2.42;;;;;;;;;;5043518;28;24457;-46
2022/09/10 01:37:52;;;;;;;2.40;2.20;;;;;;;;;;5037947;28;24423;-46
2022/09/10 01:40:17;;;;;;;2.38;2.17;;;;;;;;;;5031272;28;24432;-47
2022/09/10 01:42:44;;;;;;;3.50;2.30;;;;;;;;;;5029515;28;24430;-45
2022/09/10 01:45:11;;;;;;;2.33;2.13;;;;;;;;;;5042551;28;24436;-48
2022/09/10 01:47:36;;;;;;;2.53;2.30;;;;;;;;;;5046678;28;24460;-47
2022/09/10 01:50:06;;;;;;;3.65;2.63;;;;;;;;;;5045271;28;24522;-46
2022/09/10 01:52:44;;;;;;;2.50;2.30;;;;;;;;;;5042856;28;24443;-46
2022/09/10 01:55:29;;;;;;;2.80;2.30;;;;;;;;;;5045294;28;24462;-47
2022/09/10 01:58:02;;;;;;;3.08;2.10;;;;;;;;;;5032538;28;24522;-47
2022/09/10 02:00:27;;;;;;;2.20;2.05;;;;;;;;;;5030430;28;24435;-47
2022/09/10 02:02:59;;;;;;;2.10;2.00;;;;;;;;;;5032440;28;25043;-46
2022/09/10 02:05:25;;;;;;;2.83;2.53;;;;;;;;;;5044126;28;24465;-48
2022/09/10 02:07:52;;;;;;;2.40;2.10;;;;;;;;;;5045336;28;24426;-47
2022/09/10 02:10:18;;;;;;;2.60;2.40;;;;;;;;;;5045473;28;24488;-48
2022/09/10 02:12:44;;;;;;;2.30;2.17;;;;;;;;;;5044568;28;24542;-46
2022/09/10 02:15:10;;;;;;;2.50;2.30;;;;;;;;;;5046065;28;24423;-46
2022/09/10 02:17:36;;;;;;;2.35;2.15;;;;;;;;;;5046983;28;24404;-44
2022/09/10 02:20:04;;;;;;;2.90;2.40;;;;;;;;;;5045871;28;24443;-47
2022/09/10 02:22:30;;;;;;;2.38;2.22;;;;;;;;;;5044260;28;24837;-47
2022/09/10 02:24:56;;;;;;;3.03;2.53;;;;;;;;;;5046258;28;24419;-47
2022/09/10 02:27:22;;;;;;;2.50;2.30;;;;;;;;;;5031843;28;24428;-47
2022/09/10 02:29:48;;;;;;;2.50;2.30;;;;;;;;;;5043009;28;24446;-46
2022/09/10 02:32:13;;;;;;;2.60;2.40;;;;;;;;;;5030045;28;24977;-47
2022/09/10 02:34:39;;;;;;;3.10;2.70;;;;;;;;;;5034534;28;24432;-48
2022/09/10 02:37:04;;;;;;;2.85;2.60;;;;;;;;;;5028035;28;24396;-47
2022/09/10 02:39:29;;;;;;;3.20;3.00;;;;;;;;;;5033954;28;24526;-47
2022/09/10 02:41:55;;;;;;;3.22;2.92;;;;;;;;;;5031401;28;24419;-47
2022/09/10 02:44:20;;;;;;;3.40;3.10;;;;;;;;;;5042629;28;24415;-47
2022/09/10 02:46:45;;;;;;;3.40;3.10;;;;;;;;;;5046117;28;24418;-48
2022/09/10 02:49:10;;;;;;;4.43;2.70;;;;;;;;;;5046842;28;24419;-47
2022/09/10 02:51:40;;;;;;;3.60;3.17;;;;;;;;;;5037374;28;24442;-48
2022/09/10 02:54:05;;;;;;;3.80;2.90;;;;;;;;;;5031984;28;24474;-47
2022/09/10 02:56:31;;;;;;;3.55;3.25;;;;;;;;;;5041627;28;24477;-46
2022/09/10 02:58:56;;;;;;;2.80;2.60;;;;;;;;;;5042108;28;25072;-46
2022/09/10 03:01:21;;;;;;;3.20;2.90;;;;;;;;;;5029431;28;24965;-47
2022/09/10 03:03:50;;;;;;;3.22;2.97;;;;;;;;;;5037278;28;24411;-47
2022/09/10 03:06:16;;;;;;;3.83;3.17;;;;;;;;;;5029233;28;24949;-46
2022/09/10 03:08:41;;;;;;;3.00;2.80;;;;;;;;;;5036108;28;24427;-47
2022/09/10 03:11:07;;;;;;;3.10;2.90;;;;;;;;;;5045139;28;24469;-45
2022/09/10 03:13:32;;;;;;;2.87;2.60;;;;;;;;;;5031824;28;24518;-47
2022/09/10 03:15:57;;;;;;;3.03;2.77;;;;;;;;;;5047027;28;24889;-48
2022/09/10 03:18:23;;;;;;;3.43;2.80;;;;;;;;;;5045487;28;25062;-46
2022/09/10 03:20:48;;;;;;;2.70;2.50;;;;;;;;;;5028439;28;24416;-47
2022/09/10 03:23:13;;;;;;;3.40;3.10;;;;;;;;;;5034120;28;24438;-47
2022/09/10 03:25:39;;;;;;;3.60;3.30;;;;;;;;;;5043480;28;25126;-46
2022/09/10 03:28:04;;;;;;;3.20;2.90;;;;;;;;;;5045333;28;24455;-47
2022/09/10 03:30:29;;;;;;;4.50;3.33;;;;;;;;;;5036362;28;26011;-47
2022/09/10 03:32:54;;;;;;;2.80;2.60;;;;;;;;;;5040432;28;24492;-47
2022/09/10 03:35:21;;;;;;;3.33;2.80;;;;;;;;;;5045653;28;24505;-47
2022/09/10 03:37:46;;;;;;;3.00;2.75;;;;;;;;;;5050172;28;24495;-47
2022/09/10 03:40:11;;;;;;;2.53;2.33;;;;;;;;;;5031886;28;24424;-45
2022/09/10 03:42:37;;;;;;;2.90;2.30;;;;;;;;;;5036660;28;24400;-45
2022/09/10 03:45:02;;;;;;;2.90;2.70;;;;;;;;;;5043352;28;24415;-46
2022/09/10 03:47:28;;;;;;;2.70;2.50;;;;;;;;;;5034805;28;24428;-47
2022/09/10 03:49:53;;;;;;;2.50;2.30;;;;;;;;;;5031410;28;24412;-46
2022/09/10 03:52:21;;;;;;;2.90;2.63;;;;;;;;;;5031012;28;24435;-46
2022/09/10 03:54:46;;;;;;;2.80;2.60;;;;;;;;;;5038889;28;24449;-46
2022/09/10 03:57:11;;;;;;;3.30;3.10;;;;;;;;;;5046681;28;24457;-46
2022/09/10 03:59:40;;;;;;;2.40;2.20;;;;;;;;;;5050358;28;24439;-46
2022/09/10 04:02:05;;;;;;;2.70;2.30;;;;;;;;;;5039455;28;24446;-46
2022/09/10 04:04:30;;;;;;;2.57;2.37;;;;;;;;;;5038608;28;24500;-46
2022/09/10 04:06:55;;;;;;;2.80;2.60;;;;;;;;;;5044254;28;24923;-47
2022/09/10 04:09:21;;;;;;;2.40;2.30;;;;;;;;;;5041814;28;24996;-48
2022/09/10 04:11:46;;;;;;;2.50;2.30;;;;;;;;;;5042138;28;24519;-46
2022/09/10 04:14:11;;;;;;;2.35;2.22;;;;;;;;;;5041731;28;24545;-46
2022/09/10 04:16:36;;;;;;;2.90;2.70;;;;;;;;;;5035940;28;24419;-46
2022/09/10 04:19:01;;;;;;;3.08;2.88;;;;;;;;;;5055235;28;25010;-46
2022/09/10 04:21:26;;;;;;;3.10;2.80;;;;;;;;;;5041574;28;24465;-46
2022/09/10 04:23:53;;;;;;;2.60;2.50;;;;;;;;;;5038193;28;24412;-46
2022/09/10 04:26:18;;;;;;;2.80;2.60;;;;;;;;;;5029605;28;24412;-47
2022/09/10 04:28:44;;;;;;;2.80;2.50;;;;;;;;;;5045426;28;24544;-46
2022/09/10 04:31:09;;;;;;;3.00;2.80;;;;;;;;;;5035145;28;24582;-47
2022/09/10 04:33:35;;;;;;;4.00;2.70;;;;;;;;;;5037657;28;24554;-47
2022/09/10 04:36:00;;;;;;;3.10;2.80;;;;;;;;;;5044202;28;24440;-47
2022/09/10 04:38:26;;;;;;;3.33;2.83;;;;;;;;;;5035197;28;24492;-46
2022/09/10 04:40:51;;;;;;;3.88;3.08;;;;;;;;;;5052604;28;24439;-46
2022/09/10 04:43:17;;;;;;;3.30;3.00;;;;;;;;;;5044282;28;24420;-46
2022/09/10 04:45:42;;;;;;;3.60;3.37;;;;;;;;;;5055842;28;24523;-46
2022/09/10 04:48:08;;;;;;;3.00;2.80;;;;;;;;;;5056555;28;24506;-47
2022/09/10 04:50:34;;;;;;;3.00;2.80;;;;;;;;;;5043617;28;24432;-47
2022/09/10 04:53:00;;;;;;;4.07;3.17;;;;;;;;;;5036628;28;24431;-47
2022/09/10 04:55:25;;;;;;;3.40;3.20;;;;;;;;;;5038580;28;24433;-47
2022/09/10 04:57:50;;;;;;;4.03;3.72;;;;;;;;;;5043351;28;24453;-46
2022/09/10 05:00:15;;;;;;;3.50;3.30;;;;;;;;;;5042456;28;24426;-47
2022/09/10 05:02:42;;;;;;;3.80;3.50;;;;;;;;;;5036765;28;24460;-46
2022/09/10 05:05:07;;;;;;;3.40;3.10;;;;;;;;;;5042954;28;25075;-47
2022/09/10 05:07:32;;;;;;;3.77;3.47;;;;;;;;;;5036633;28;24534;-47
2022/09/10 05:09:57;;;;;;;3.70;3.40;;;;;;;;;;5038176;28;25101;-46
2022/09/10 05:12:23;;;;;;;4.40;3.65;;;;;;;;;;5046102;28;24462;-46
2022/09/10 05:14:48;;;;;;;3.90;3.10;;;;;;;;;;5048841;28;24639;-47
2022/09/10 05:17:14;;;;;;;3.90;3.50;;;;;;;;;;5061145;28;24505;-47
2022/09/10 05:19:39;;;;;;;3.70;3.40;;;;;;;;;;5049731;28;24987;-48
2022/09/10 05:22:04;;;;;;;5.33;3.70;;;;;;;;;;5037349;28;24430;-46
2022/09/10 05:24:30;;;;;;;3.63;3.33;;;;;;;;;;5032196;28;24473;-46
2022/09/10 05:26:55;;;;;;;3.40;3.10;;;;;;;;;;5049578;28;24399;-46
2022/09/10 05:29:21;;;;;;;5.33;3.40;;;;;;;;;;5029922;28;24403;-47
2022/09/10 05:31:49;;;;;;;3.30;3.00;;;;;;;;;;5034948;28;24617;-47
2022/09/10 05:34:14;;;;;;;3.15;2.95;;;;;;;;;;5033268;28;24461;-47
2022/09/10 05:36:40;;;;;;;3.60;3.30;;;;;;;;;;5037996;28;24484;-47
2022/09/10 05:39:05;;;;;;;3.65;3.42;;;;;;;;;;5041575;28;24454;-47
2022/09/10 05:41:31;;;;;;;3.28;2.97;;;;;;;;;;5047672;28;24443;-46
2022/09/10 05:43:56;;;;;;;3.60;3.30;;;;;;;;;;5033282;28;25024;-46
2022/09/10 05:46:22;;;;;;;3.60;3.33;;;;;;;;;;5028858;28;24432;-47
2022/09/10 05:48:47;;;;;;;3.05;2.85;;;;;;;;;;5037355;28;24515;-46
2022/09/10 05:51:13;;;;;;;3.38;3.10;;;;;;;;;;5038894;28;24427;-45
2022/09/10 05:53:40;;;;;;;3.70;3.23;;;;;;;;;;5039027;28;25041;-46
2022/09/10 05:56:06;;;;;;;3.55;3.25;;;;;;;;;;5048189;28;25147;-44
2022/09/10 05:58:33;;;;;;;3.50;3.20;;;;;;;;;;5044418;28;24438;-44
2022/09/10 06:00:58;;;;;;;3.30;3.00;;;;;;;;;;5048448;28;24514;-46
2022/09/10 06:03:23;;;;;;;3.40;2.90;;;;;;;;;;5041806;28;24506;-45
2022/09/10 06:05:50;;;;;;;2.90;2.70;;;;;;;;;;5046142;28;24466;-45
2022/09/10 06:08:15;;;;;;;4.43;4.03;;;;;;;;;;5041926;28;24435;-46
2022/09/10 06:10:40;;;;;;;4.73;4.30;;;;;;;;;;5038319;28;24430;-45
2022/09/10 06:13:05;;;;;;;4.20;3.90;;;;;;;;;;5029703;28;24523;-45
2022/09/10 06:15:33;;;;;;;3.20;3.00;;;;;;;;;;5036430;28;24444;-44
2022/09/10 06:18:04;;;;;;;2.70;2.30;;;;;;;;;;5042906;28;24431;-45
2022/09/10 06:20:29;;;;;;;3.30;2.90;;;;;;;;;;5035720;28;24439;-45
2022/09/10 06:22:54;;;;;;;3.20;2.90;;;;;;;;;;5039544;28;24420;-46
2022/09/10 06:25:20;;;;;;;2.90;2.70;;;;;;;;;;5044256;28;24450;-45
2022/09/10 06:27:46;;;;;;;2.72;2.53;;;;;;;;;;5032946;28;24419;-46
2022/09/10 06:30:11;;;;;;;2.90;2.60;;;;;;;;;;5029450;28;25053;-46
2022/09/10 06:32:38;;;;;;;2.70;2.50;;;;;;;;;;5030770;28;24503;-47
2022/09/10 06:35:03;;;;;;;3.00;2.70;;;;;;;;;;5044335;28;24458;-46
2022/09/10 06:37:29;;;;;;;3.10;2.30;;;;;;;;;;5034894;28;24415;-51
2022/09/10 06:39:54;;;;;;;2.85;2.30;;;;;;;;;;5031381;28;24457;-47
2022/09/10 06:42:19;;;;;;;3.50;2.30;;;;;;;;;;5035151;28;24510;-46
2022/09/10 06:44:44;;;;;;;4.10;2.35;;;;;;;;;;5034477;28;24419;-47
2022/09/10 06:47:09;;;;;;;2.10;2.00;;;;;;;;;;5036262;28;24419;-47
2022/09/10 06:49:35;;;;;;;2.40;2.20;;;;;;;;;;5030142;28;24424;-47
2022/09/10 06:52:00;;;;;;;2.20;2.10;;;;;;;;;;5038965;28;24420;-52
2022/09/10 06:54:25;;;;;;;1.80;1.70;;;;;;;;;;5033478;28;24469;-46
2022/09/10 06:56:51;;;;;;;2.00;1.90;;;;;;;;;;5040364;28;24482;-47
2022/09/10 06:59:17;;;;;;;1.95;1.75;;;;;;;;;;5035189;28;24430;-53
2022/09/10 07:01:42;;;;;;;1.73;1.63;;;;;;;;;;5035403;28;24462;-48
2022/09/10 07:04:08;;;;;;;1.53;1.20;;;;;;;;;;5036441;28;24786;-47
2022/09/10 07:06:34;;;;;;;1.40;1.27;;;;;;;;;;5042065;28;24535;-48
2022/09/10 07:08:59;;;;;;;1.48;1.38;;;;;;;;;;5039549;28;24434;-47
2022/09/10 07:11:26;;;;;;;2.30;1.20;;;;;;;;;;5031483;28;24485;-46
2022/09/10 07:13:52;;;;;;;1.40;0.93;;;;;;;;;;5023654;28;24518;-46
2022/09/10 07:16:18;;;;;;;1.40;1.10;;;;;;;;;;5031285;28;24543;-45
2022/09/10 07:18:46;;;;;;;2.20;1.00;;;;;;;;;;5053517;28;24423;-47
2022/09/10 07:21:12;;;;;;;1.20;1.10;;;;;;;;;;5040840;28;24543;-50
2022/09/10 07:23:38;;;;;;;1.13;1.02;;;;;;;;;;5038593;28;24941;-46
2022/09/10 07:26:11;;;;;;;1.30;1.10;;;;;;;;;;5040035;28;24500;-46
2022/09/10 07:28:36;;;;;;;1.50;1.10;;;;;;;;;;5029659;28;24482;-46
2022/09/10 07:31:16;;;;;;;1.20;1.10;;;;;;;;;;5033558;28;24965;-47
2022/09/10 07:33:41;;;;;;;1.00;0.90;;;;;;;;;;5038950;28;24492;-46
2022/09/10 07:36:07;;;;;;;1.20;1.10;;;;;;;;;;5039205;28;24563;-47
2022/09/10 07:38:32;;;;;;;2.28;1.00;;;;;;;;;;5029096;28;24973;-47
2022/09/10 07:41:00;;;;;;;1.90;1.00;;;;;;;;;;5043576;28;24438;-48
2022/09/10 07:43:25;;;;;;;2.13;1.20;;;;;;;;;;5040039;28;24976;-46
2022/09/10 07:45:50;;;;;;;3.72;1.35;;;;;;;;;;5045854;28;24557;-47
2022/09/10 07:48:15;;;;;;;2.13;1.10;;;;;;;;;;5042751;28;24782;-48
2022/09/10 07:50:41;;;;;;;2.17;1.10;;;;;;;;;;5044019;28;24473;-48
2022/09/10 07:53:06;;;;;;;2.47;0.90;;;;;;;;;;5032501;28;24416;-48
2022/09/10 07:55:31;;;;;;;1.50;1.10;;;;;;;;;;5043196;28;24997;-48
2022/09/10 07:57:56;;;;;;;1.10;1.00;;;;;;;;;;5030665;28;24430;-49
2022/09/10 08:00:22;;;;;;;1.60;1.00;;;;;;;;;;5054484;28;24526;-46
2022/09/10 08:02:47;;;;;;;2.30;1.10;;;;;;;;;;5043188;28;24974;-47
2022/09/10 08:05:12;;;;;;;4.07;1.10;;;;;;;;;;5049619;28;24421;-47
2022/09/10 08:07:38;;;;;;;2.90;1.40;;;;;;;;;;5037944;28;24513;-47
2022/09/10 08:10:04;;;;;;;1.60;0.90;;;;;;;;;;5049019;28;24438;-47
2022/09/10 08:12:29;;;;;;;2.35;0.90;;;;;;;;;;5053446;28;24419;-47
2022/09/10 08:14:56;;;;;;;1.05;0.95;;;;;;;;;;5052625;28;25059;-47
2022/09/10 08:17:21;;;;;;;1.10;1.00;;;;;;;;;;5042628;28;24427;-48
2022/09/10 08:19:49;;;;;;;2.13;1.10;;;;;;;;;;5041426;28;24868;-47
2022/09/10 08:22:14;;;;;;;1.70;1.00;;;;;;;;;;5044657;28;24494;-47
2022/09/10 08:24:39;;;;;;;1.63;0.90;;;;;;;;;;5038116;28;24898;-46
2022/09/10 08:27:04;;;;;;;2.80;1.10;;;;;;;;;;5033845;28;25016;-47
2022/09/10 08:29:30;;;;;;;1.10;0.90;;;;;;;;;;5032541;28;24502;-47
2022/09/10 08:31:55;;;;;;;1.50;1.00;;;;;;;;;;5031223;28;24430;-47
2022/09/10 08:34:20;;;;;;;1.30;1.20;;;;;;;;;;5030673;28;24450;-47
2022/09/10 08:36:45;;;;;;;1.60;1.00;;;;;;;;;;5039775;28;24419;-47
2022/09/10 08:39:10;;;;;;;0.90;0.80;;;;;;;;;;5029262;28;24469;-47
2022/09/10 08:41:37;;;;;;;1.77;1.08;;;;;;;;;;5027568;28;21188;-48
2022/09/10 08:44:09;;;;;;;0.90;0.90;;;;;;;;;;5038559;28;24419;-46
2022/09/10 08:46:48;;;;;;;1.40;1.00;;;;;;;;;;5032471;28;24521;-47
2022/09/10 08:49:19;;;;;;;1.90;0.95;;;;;;;;;;5034119;28;24497;-46
2022/09/10 08:51:50;;;;;;;4.05;1.00;;;;;;;;;;5049357;28;24535;-46
2022/09/10 08:54:19;;;;;;;1.35;0.90;;;;;;;;;;5048780;28;24398;-47
2022/09/10 08:56:45;;;;;;;1.10;0.80;;;;;;;;;;5030910;28;24525;-47
2022/09/10 08:59:20;;;;;;;0.90;0.80;;;;;;;;;;5029546;28;24424;-47
2022/09/10 09:01:49;;;;;;;1.80;1.10;;;;;;;;;;5029555;28;24444;-47
2022/09/10 09:04:16;;;;;;;1.23;0.90;;;;;;;;;;5029350;28;24803;-47
2022/09/10 09:06:45;;;;;;;1.20;1.10;;;;;;;;;;5029318;28;24462;-47
2022/09/10 09:09:10;;;;;;;1.37;1.07;;;;;;;;;;5029248;28;24805;-47
2022/09/10 09:11:41;;;;;;;1.17;1.07;;;;;;;;;;5029921;28;24969;-47
2022/09/10 09:14:24;;;;;;;1.77;1.20;;;;;;;;;;5028982;28;24972;-48
2022/09/10 09:16:50;;;;;;;1.33;1.00;;;;;;;;;;5028927;28;24497;-46
2022/09/10 09:19:21;;;;;;;1.75;0.88;;;;;;;;;;5029059;28;24930;-46
2022/09/10 09:21:53;;;;;;;1.30;1.00;;;;;;;;;;5040716;28;24512;-47
2022/09/10 09:24:35;;;;;;;1.02;0.70;;;;;;;;;;5030183;28;24427;-46
2022/09/10 09:27:08;;;;;;;1.13;0.90;;;;;;;;;;5028537;28;24572;-47
2022/09/10 09:29:36;;;;;;;2.20;1.23;;;;;;;;;;5037533;28;24891;-48
2022/09/10 09:32:03;;;;;;;1.08;0.80;;;;;;;;;;5030402;28;24396;-48
2022/09/10 09:34:28;;;;;;;1.80;1.20;;;;;;;;;;5046124;28;24439;-47
2022/09/10 09:36:55;;;;;;;1.02;0.90;;;;;;;;;;5048437;28;24510;-47
2022/09/10 09:39:22;;;;;;;1.10;1.00;;;;;;;;;;5048693;28;24399;-46
2022/09/10 09:42:13;;;;;;;1.20;0.90;;;;;;;;;;5048464;28;20855;-47
2022/09/10 09:44:45;;;;;;;1.20;0.90;;;;;;;;;;5046487;28;25014;-46
2022/09/10 09:47:10;;;;;;;1.45;0.70;;;;;;;;;;5048669;28;24395;-47
2022/09/10 09:49:35;;;;;;;0.70;0.70;;;;;;;;;;5048188;28;25013;-47
2022/09/10 09:52:10;;;;;;;0.87;0.87;;;;;;;;;;5048697;28;24384;-47
2022/09/10 09:54:45;;;;;;;1.30;0.80;;;;;;;;;;5047026;28;25128;-47
2022/09/10 09:57:14;;;;;;;1.10;0.98;;;;;;;;;;5048434;28;24944;-47
2022/09/10 09:59:40;;;;;;;1.10;1.00;;;;;;;;;;5047846;28;24549;-48
2022/09/10 10:02:11;;;;;;;1.23;1.13;;;;;;;;;;5048075;28;24475;-48
2022/09/10 10:04:36;;;;;;;1.70;1.00;;;;;;;;;;5038100;28;24519;-48
2022/09/10 10:07:02;;;;;;;0.97;0.93;;;;;;;;;;5028101;28;24581;-47
2022/09/10 10:09:28;;;;;;;2.28;1.10;;;;;;;;;;5028008;28;24471;-47
2022/09/10 10:12:17;;;;;;;1.20;0.90;;;;;;;;;;5027985;28;24474;-47
2022/09/10 10:14:42;;;;;;;1.35;1.00;;;;;;;;;;5029674;28;24507;-46
2022/09/10 10:17:40;;;;;;;1.17;0.80;;;;;;;;;;5028568;28;24507;-47
2022/09/10 10:20:09;;;;;;;1.10;1.00;;;;;;;;;;5034911;28;25021;-46
2022/09/10 10:22:36;;;;;;;2.67;0.80;;;;;;;;;;5047328;28;24383;-47
2022/09/10 10:25:02;;;;;;;2.93;0.97;;;;;;;;;;5047901;28;24402;-47
2022/09/10 10:27:31;;;;;;;1.30;1.00;;;;;;;;;;5038255;28;24412;-47
2022/09/10 10:29:59;;;;;;;1.30;0.90;;;;;;;;;;5027375;28;24400;-47
2022/09/10 10:32:30;;;;;;;0.95;0.80;;;;;;;;;;5027676;28;24408;-47
2022/09/10 10:35:07;;;;;;;1.35;1.13;;;;;;;;;;5027558;28;24434;-47
2022/09/10 10:37:39;;;;;;;2.00;1.00;;;;;;;;;;5037234;28;24559;-47
2022/09/10 10:40:22;;;;;;;1.52;1.40;;;;;;;;;;5045822;28;24492;-47
2022/09/10 10:42:58;;;;;;;2.35;1.30;;;;;;;;;;5046946;28;24521;-47
2022/09/10 10:45:36;;;;;;;1.30;1.20;;;;;;;;;;5047360;28;24386;-47
2022/09/10 10:48:11;;;;;;;1.67;1.00;;;;;;;;;;5037454;28;24452;-47
2022/09/10 10:50:41;;;;;;;1.10;1.00;;;;;;;;;;5033291;28;24477;-47
2022/09/10 10:53:17;;;;;;;1.73;1.13;;;;;;;;;;5047365;28;24443;-48
2022/09/10 10:56:02;;;;;;;1.00;0.90;;;;;;;;;;5038804;28;24485;-47
2022/09/10 10:58:40;;;;;;;1.40;1.10;;;;;;;;;;5031103;28;24431;-47
2022/09/10 11:01:11;;;;;;;1.20;1.10;;;;;;;;;;5031651;28;24532;-47
2022/09/10 11:03:41;;;;;;;1.13;1.02;;;;;;;;;;5044833;28;24958;-47
2022/09/10 11:06:09;;;;;;;2.00;1.10;;;;;;;;;;5030137;28;24424;-46
2022/09/10 11:08:45;;;;;;;1.25;1.00;;;;;;;;;;5039971;28;24444;-48
2022/09/10 11:11:16;;;;;;;1.00;0.90;;;;;;;;;;5025687;28;24462;-46
2022/09/10 11:13:43;;;;;;;1.23;1.10;;;;;;;;;;5043096;28;24473;-46
2022/09/10 11:16:13;;;;;;;1.08;0.90;;;;;;;;;;5042076;28;24432;-47
2022/09/10 11:18:51;;;;;;;1.20;0.90;;;;;;;;;;5037023;28;24420;-46
2022/09/10 11:21:22;;;;;;;1.40;1.00;;;;;;;;;;5033296;28;24441;-46
2022/09/10 11:23:50;;;;;;;1.40;1.00;;;;;;;;;;5040721;28;24458;-48
2022/09/10 11:26:22;;;;;;;1.13;0.90;;;;;;;;;;5035706;28;24800;-47
2022/09/10 11:28:57;;;;;;;2.00;0.90;;;;;;;;;;5030050;28;24423;-47
2022/09/10 11:31:29;;;;;;;2.60;1.10;;;;;;;;;;5036284;28;24510;-46
2022/09/10 11:33:58;;;;;;;1.30;1.00;;;;;;;;;;5040322;28;24434;-47
2022/09/10 11:36:28;;;;;;;1.42;1.15;;;;;;;;;;5032468;28;25065;-48
2022/09/10 11:39:00;;;;;;;1.58;1.48;;;;;;;;;;5027179;28;24524;-47
2022/09/10 11:41:28;;;;;;;1.33;1.20;;;;;;;;;;5037978;28;24443;-48
2022/09/10 11:44:13;;;;;;;1.15;1.02;;;;;;;;;;5035689;28;25042;-46
2022/09/10 11:46:43;;;;;;;2.42;1.20;;;;;;;;;;5041255;28;24976;-48
2022/09/10 11:49:12;;;;;;;1.67;1.00;;;;;;;;;;5055829;28;24969;-46
2022/09/10 11:51:38;;;;;;;1.60;0.90;;;;;;;;;;5052443;28;24607;-46
2022/09/10 11:54:05;;;;;;;1.40;1.20;;;;;;;;;;5045880;28;24525;-46
2022/09/10 11:56:49;;;;;;;1.63;1.02;;;;;;;;;;5056826;28;24972;-47
2022/09/10 11:59:27;;;;;;;1.00;0.90;;;;;;;;;;5052645;28;24415;-46
2022/09/10 12:02:11;;;;;;;1.80;1.00;;;;;;;;;;5053714;28;25372;-47
2022/09/10 12:04:45;;;;;;;1.10;1.10;;;;;;;;;;5053444;28;24510;-48
2022/09/10 12:07:18;;;;;;;1.20;1.10;;;;;;;;;;5049681;28;24960;-47
2022/09/10 12:09:46;;;;;;;0.95;0.90;;;;;;;;;;5059329;28;24404;-47
2022/09/10 12:12:17;;;;;;;1.20;1.10;;;;;;;;;;5046244;28;24438;-46
2022/09/10 12:14:42;;;;;;;1.00;1.00;;;;;;;;;;5047435;28;24490;-45
2022/09/10 12:17:14;;;;;;;1.30;1.00;;;;;;;;;;5040004;28;24605;-47
2022/09/10 12:19:45;;;;;;;2.08;1.48;;;;;;;;;;5059272;28;24417;-47
2022/09/10 12:22:23;;;;;;;2.17;1.60;;;;;;;;;;5049669;28;24504;-47
2022/09/10 12:24:49;;;;;;;2.20;1.40;;;;;;;;;;5051000;28;24399;-47
2022/09/10 12:27:16;;;;;;;2.10;1.40;;;;;;;;;;5054914;28;24414;-46
2022/09/10 12:29:41;;;;;;;1.42;1.30;;;;;;;;;;5046420;28;25095;-47
2022/09/10 12:32:19;;;;;;;1.50;1.30;;;;;;;;;;5056638;28;24522;-46
2022/09/10 12:34:48;;;;;;;1.40;1.30;;;;;;;;;;5053372;28;25173;-47
2022/09/10 12:37:18;;;;;;;1.30;1.20;;;;;;;;;;5047782;28;24438;-47
2022/09/10 12:39:44;;;;;;;1.55;1.20;;;;;;;;;;5051447;28;24987;-47
2022/09/10 12:42:29;;;;;;;1.10;1.00;;;;;;;;;;5053137;28;24421;-48
2022/09/10 12:44:55;;;;;;;1.80;1.60;;;;;;;;;;5040071;28;25086;-47
2022/09/10 12:47:21;;;;;;;1.40;1.30;;;;;;;;;;5054853;28;24429;-65
2022/09/10 12:49:50;;;;;;;1.70;1.30;;;;;;;;;;5049030;28;24438;-47
2022/09/10 12:52:35;;;;;;;1.63;1.20;;;;;;;;;;5051355;28;24419;-48
2022/09/10 12:55:01;;;;;;;1.30;1.20;;;;;;;;;;5066446;28;24398;-47
2022/09/10 12:57:46;;;;;;;1.63;1.30;;;;;;;;;;5040472;28;24466;-48
2022/09/10 13:00:14;;;;;;;1.75;1.20;;;;;;;;;;5045658;28;24815;-47
2022/09/10 13:02:50;;;;;;;2.00;1.30;;;;;;;;;;5040559;28;24443;-48
2022/09/10 13:05:35;;;;;;;1.33;1.20;;;;;;;;;;5045022;28;24515;-48
2022/09/10 13:08:07;;;;;;;1.70;1.30;;;;;;;;;;5038340;28;24526;-48
2022/09/10 13:10:32;;;;;;;1.70;1.15;;;;;;;;;;5045262;28;25202;-48
2022/09/10 13:12:59;;;;;;;1.20;1.10;;;;;;;;;;5045253;28;24522;-48
2022/09/10 13:15:27;;;;;;;1.38;1.27;;;;;;;;;;5038138;28;24897;-48
2022/09/10 13:17:53;;;;;;;1.37;1.10;;;;;;;;;;5038376;28;24778;-47
2022/09/10 13:20:18;;;;;;;1.00;0.90;;;;;;;;;;5039118;28;25062;-47
2022/09/10 13:23:05;;;;;;;1.10;1.00;;;;;;;;;;5046112;28;24948;-47
2022/09/10 13:25:41;;;;;;;1.10;1.00;;;;;;;;;;5044832;28;24783;-46
2022/09/10 13:28:25;;;;;;;1.30;1.10;;;;;;;;;;5040546;28;24515;-45
2022/09/10 13:31:00;;;;;;;1.30;1.05;;;;;;;;;;5036198;28;24427;-46
2022/09/10 13:33:28;;;;;;;1.40;1.00;;;;;;;;;;5034683;28;25003;-47
2022/09/10 13:35:53;;;;;;;1.80;1.25;;;;;;;;;;5036665;28;24436;-49
2022/09/10 13:38:21;;;;;;;1.30;1.20;;;;;;;;;;5028636;28;24514;-47
2022/09/10 13:44:03;;;;;;;2.35;1.30;;;;;;;;;;5029793;28;25241;-47
2022/09/10 13:46:37;;;;;;;1.85;1.30;;;;;;;;;;5036441;28;24507;-48
2022/09/10 13:49:21;;;;;;;1.40;1.30;;;;;;;;;;5047840;28;24480;-48
2022/09/10 13:51:54;;;;;;;1.60;1.30;;;;;;;;;;5047149;28;24424;-47
2022/09/10 13:54:19;;;;;;;1.20;1.10;;;;;;;;;;5048438;28;24418;-48
2022/09/10 13:56:44;;;;;;;1.77;1.30;;;;;;;;;;5048215;28;24399;-47
2022/09/10 13:59:15;;;;;;;2.20;1.27;;;;;;;;;;5048263;28;24469;-47
2022/09/10 14:01:51;;;;;;;1.42;1.30;;;;;;;;;;5044743;28;24430;-48
2022/09/10 14:04:36;;;;;;;1.30;1.20;;;;;;;;;;5047521;28;24430;-48
2022/09/10 14:07:04;;;;;;;1.10;1.00;;;;;;;;;;5047997;28;24494;-47
2022/09/10 14:09:31;;;;;;;2.60;1.10;;;;;;;;;;5047890;28;25201;-48
2022/09/10 14:11:58;;;;;;;1.30;1.20;;;;;;;;;;5035092;28;24436;-48
2022/09/10 14:14:26;;;;;;;0.90;0.90;;;;;;;;;;5034798;28;24852;-48
2022/09/10 14:17:01;;;;;;;1.70;1.02;;;;;;;;;;5047619;28;25185;-48
2022/09/10 14:19:29;;;;;;;0.98;0.98;;;;;;;;;;5047396;28;24399;-48
2022/09/10 14:21:56;;;;;;;1.10;1.00;;;;;;;;;;5027740;28;24450;-48
2022/09/10 14:24:29;;;;;;;1.17;1.07;;;;;;;;;;5028013;28;24386;-47
2022/09/10 14:27:04;;;;;;;1.25;0.90;;;;;;;;;;5027833;28;24437;-49
2022/09/10 14:29:29;;;;;;;1.37;1.00;;;;;;;;;;5027813;28;24433;-48
2022/09/10 14:31:55;;;;;;;1.50;1.00;;;;;;;;;;5029715;28;24420;-49
2022/09/10 14:34:27;;;;;;;0.90;0.90;;;;;;;;;;5047494;28;24760;-47
2022/09/10 14:36:52;;;;;;;1.10;1.00;;;;;;;;;;5047741;28;24488;-45
2022/09/10 14:39:21;;;;;;;1.17;1.00;;;;;;;;;;5046384;28;24566;-46
2022/09/10 14:41:46;;;;;;;1.10;1.00;;;;;;;;;;5029655;28;24466;-47
2022/09/10 14:44:26;;;;;;;1.90;0.90;;;;;;;;;;5038350;28;24966;-46
2022/09/10 14:47:06;;;;;;;0.90;0.90;;;;;;;;;;5037171;28;24412;-46
2022/09/10 14:49:32;;;;;;;0.90;0.90;;;;;;;;;;5051537;28;24434;-46
2022/09/10 14:51:58;;;;;;;0.90;0.80;;;;;;;;;;5059286;28;24414;-46
2022/09/10 14:54:24;;;;;;;1.10;1.00;;;;;;;;;;5055099;28;24884;-47